Time;durP1;ratioP1;P1;durP2;ratioP2;P2;SDS_P1;SDS_P2;PMS_P1;PMS_P2;Temp;Humidity;BMP_temperature;BMP_pressure;BME280_temperature;BME280_humidity;BME280_pressure;Samples;Min_cycle;Max_cycle;Signal;HPM_P1;HPM_P2
2022/11/08 05:12:18;;;;;;;34.20;16.55;;;;;;;7.82;92.74;101095.63;5598728;31;207759;-56
2022/11/08 05:15:20;;;;;;;34.35;17.05;;;;;;;7.82;92.74;101095.63;5602898;31;33390;-56
2022/11/08 05:18:22;;;;;;;39.88;17.40;;;;;;;7.42;94.05;101096.59;5595965;31;33574;-56
2022/11/08 05:24:46;;;;;;;32.03;15.77;;;;;;;7.60;93.02;101093.69;5583602;31;34246;-56
2022/11/08 05:27:48;;;;;;;72.90;15.82;;;;;;;7.60;93.50;101109.69;5578236;32;33662;-56
2022/11/08 05:30:54;;;;;;;63.92;16.52;;;;;;;7.61;93.88;101110.50;5564315;32;33673;-56
2022/11/08 05:33:58;;;;;;;65.15;16.40;;;;;;;7.74;94.12;101112.84;5579410;31;33824;-56
2022/11/08 05:37:00;;;;;;;34.10;13.98;;;;;;;7.73;93.26;101109.38;5583667;31;34234;-56
2022/11/08 05:40:03;;;;;;;66.85;15.77;;;;;;;7.64;94.04;101115.34;5580074;31;33536;-57
2022/11/08 05:43:05;;;;;;;68.68;16.15;;;;;;;7.80;94.57;101116.41;5580901;32;33027;-56
2022/11/08 05:46:08;;;;;;;62.42;15.75;;;;;;;7.88;92.93;101118.66;5582301;32;33586;-56
2022/11/08 05:49:10;;;;;;;77.37;15.05;;;;;;;7.94;92.23;101125.69;5571858;32;32242;-56
2022/11/08 05:52:12;;;;;;;72.43;16.02;;;;;;;7.90;93.34;101121.91;5575710;31;34331;-56
2022/11/08 05:55:14;;;;;;;52.80;15.23;;;;;;;7.92;93.06;101120.63;5582567;32;33805;-56
2022/11/08 05:58:16;;;;;;;35.67;14.52;;;;;;;7.87;92.62;101131.19;5581945;31;33304;-56
2022/11/08 06:01:19;;;;;;;48.22;13.68;;;;;;;7.69;93.07;101129.59;5577291;31;33426;-56
2022/11/08 06:04:22;;;;;;;33.88;14.40;;;;;;;7.81;93.06;101126.81;5581662;32;34295;-56
2022/11/08 06:07:27;;;;;;;28.35;13.45;;;;;;;7.78;93.20;101129.97;5580736;32;34296;-56
2022/11/08 06:10:29;;;;;;;30.30;15.55;;;;;;;7.74;93.47;101123.53;5580149;31;33796;-56
2022/11/08 06:13:35;;;;;;;50.60;14.10;;;;;;;7.80;95.15;101124.41;5580513;31;33627;-56
2022/11/08 06:16:37;;;;;;;39.10;14.02;;;;;;;7.80;94.08;101127.09;5581154;31;34291;-56
2022/11/08 06:19:39;;;;;;;41.78;14.40;;;;;;;7.89;93.65;101134.44;5577673;32;33834;-56
2022/11/08 06:22:42;;;;;;;37.28;14.35;;;;;;;7.90;93.41;101132.59;5568089;32;34298;-56
2022/11/08 06:25:47;;;;;;;23.67;12.80;;;;;;;7.90;93.81;101135.25;5567830;32;33833;-56
2022/11/08 06:28:50;;;;;;;32.65;14.15;;;;;;;8.04;92.00;101138.37;5567854;32;33750;-56
2022/11/08 06:31:52;;;;;;;38.08;13.62;;;;;;;7.97;91.63;101142.03;5568739;32;34235;-56
2022/11/08 06:34:54;;;;;;;29.63;14.15;;;;;;;7.95;92.70;101144.16;5563100;32;33725;-56
2022/11/08 06:37:56;;;;;;;39.13;15.27;;;;;;;7.91;92.96;101139.53;5567013;32;33840;-56
2022/11/08 06:41:03;;;;;;;27.20;14.25;;;;;;;7.97;93.24;101141.22;5565495;32;33043;-56
2022/11/08 06:44:05;;;;;;;29.40;14.60;;;;;;;7.93;92.03;101143.59;5565558;32;34164;-56
2022/11/08 06:47:07;;;;;;;35.72;15.32;;;;;;;7.92;92.70;101141.97;5566753;32;33595;-56
2022/11/08 06:50:09;;;;;;;43.35;16.55;;;;;;;7.96;92.94;101151.09;5565240;32;33699;-56
2022/11/08 06:53:12;;;;;;;32.28;16.75;;;;;;;7.93;93.25;101151.59;5567176;32;33623;-56
2022/11/08 06:56:17;;;;;;;35.88;16.75;;;;;;;7.96;94.37;101147.62;5567550;32;34205;-56
2022/11/08 06:59:21;;;;;;;32.65;16.35;;;;;;;8.05;93.66;101153.38;5566739;32;34087;-56
2022/11/08 07:02:23;;;;;;;39.65;17.90;;;;;;;8.00;94.47;101162.91;5567049;32;33877;-57
2022/11/08 07:05:28;;;;;;;40.33;19.08;;;;;;;8.00;94.10;101156.75;5567428;32;33794;-56
2022/11/08 07:08:31;;;;;;;41.08;19.50;;;;;;;8.09;95.08;101159.84;5565632;32;34215;-56
2022/11/08 07:11:33;;;;;;;40.00;19.27;;;;;;;8.27;94.06;101154.22;5566648;32;34433;-56
2022/11/08 07:14:35;;;;;;;49.75;19.12;;;;;;;8.24;95.89;101160.06;5565642;32;33415;-56
2022/11/08 07:17:38;;;;;;;35.63;20.27;;;;;;;8.43;93.51;101157.94;5568780;32;34226;-56
2022/11/08 07:20:41;;;;;;;31.67;20.88;;;;;;;8.39;93.72;101154.97;5565648;32;33771;-56
2022/11/08 07:23:44;;;;;;;32.20;20.77;;;;;;;8.48;92.49;101155.34;5565448;32;33700;-56
2022/11/08 07:26:46;;;;;;;52.47;21.23;;;;;;;8.57;92.66;101161.88;5565850;32;34358;-56
2022/11/08 07:29:48;;;;;;;33.92;21.85;;;;;;;8.47;94.12;101154.53;5565353;31;32415;-56
2022/11/08 07:32:51;;;;;;;36.97;21.00;;;;;;;8.46;94.72;101158.25;5566307;32;34420;-56
2022/11/08 07:35:53;;;;;;;34.22;22.08;;;;;;;8.38;93.96;101158.69;5564384;32;33759;-57
2022/11/08 07:38:55;;;;;;;39.28;21.23;;;;;;;8.28;95.20;101173.72;5564805;32;33630;-57
2022/11/08 07:42:00;;;;;;;41.53;22.42;;;;;;;8.11;96.08;101173.75;5563554;32;33390;-56
2022/11/08 07:45:04;;;;;;;44.90;23.25;;;;;;;8.28;95.26;101174.56;5567112;31;33335;-56
2022/11/08 07:48:10;;;;;;;39.30;22.52;;;;;;;8.26;96.79;101171.31;5566329;32;33550;-57
2022/11/08 07:51:14;;;;;;;43.78;24.33;;;;;;;8.34;96.32;101173.56;5563857;32;34392;-57
2022/11/08 07:54:19;;;;;;;40.72;23.50;;;;;;;8.49;95.45;101169.53;5564226;32;33866;-56
2022/11/08 07:57:22;;;;;;;44.42;23.92;;;;;;;8.47;95.15;101167.88;5563901;32;34290;-56
2022/11/08 08:00:24;;;;;;;40.55;26.08;;;;;;;8.45;94.91;101170.00;5559315;32;33970;-56
2022/11/08 08:03:26;;;;;;;44.90;27.13;;;;;;;8.36;97.69;101176.78;5566971;32;33718;-56
2022/11/08 08:06:28;;;;;;;43.22;27.00;;;;;;;8.55;97.26;101168.53;5565517;32;34227;-56
2022/11/08 08:09:33;;;;;;;50.97;27.52;;;;;;;8.74;95.82;101172.53;5564435;32;33718;-57
2022/11/08 08:12:35;;;;;;;48.95;26.58;;;;;;;8.65;94.77;101172.16;5562717;32;33779;-56
2022/11/08 08:15:38;;;;;;;47.83;27.30;;;;;;;8.72;93.59;101179.19;5567966;32;32223;-56
2022/11/08 08:18:40;;;;;;;43.10;28.45;;;;;;;8.71;93.87;101173.03;5568607;32;33890;-57
2022/11/08 08:21:42;;;;;;;38.72;26.48;;;;;;;8.83;94.05;101176.37;5561319;32;33746;-57
2022/11/08 08:24:44;;;;;;;45.78;26.95;;;;;;;8.96;93.93;101177.06;5561108;32;34333;-56
2022/11/08 08:27:51;;;;;;;52.67;27.45;;;;;;;9.08;92.43;101181.22;5562409;32;33855;-56
2022/11/08 08:30:53;;;;;;;55.17;27.37;;;;;;;9.16;91.65;101172.75;5555511;32;33681;-57
2022/11/08 08:33:55;;;;;;;51.53;26.27;;;;;;;9.05;92.22;101173.69;5559931;32;33974;-56
2022/11/08 08:36:57;;;;;;;48.95;26.80;;;;;;;9.10;92.17;101167.59;5562883;32;34244;-56
2022/11/08 08:40:00;;;;;;;53.17;28.52;;;;;;;8.91;93.23;101173.28;5558688;32;33569;-57
2022/11/08 08:43:04;;;;;;;56.50;29.40;;;;;;;8.82;94.73;101169.41;5566688;32;33094;-56
2022/11/08 08:46:06;;;;;;;53.40;27.98;;;;;;;8.82;94.56;101171.28;5566537;32;34334;-56
2022/11/08 08:49:08;;;;;;;47.97;28.85;;;;;;;8.91;93.71;101170.59;5564637;32;33684;-57
2022/11/08 08:52:13;;;;;;;47.92;29.17;;;;;;;8.94;95.00;101171.97;5558363;32;33577;-56
2022/11/08 08:55:22;;;;;;;42.13;26.42;;;;;;;9.26;92.97;101169.37;5566170;32;33683;-56
2022/11/08 08:58:25;;;;;;;45.72;26.98;;;;;;;9.41;92.33;101179.44;5565230;32;33240;-56
2022/11/08 09:01:27;;;;;;;41.50;26.75;;;;;;;9.39;91.71;101195.72;5563414;32;33677;-56
2022/11/08 09:04:44;;;;;;;50.28;28.80;;;;;;;9.24;92.38;101190.22;5565285;32;33174;-57
2022/11/08 09:07:46;;;;;;;43.60;27.30;;;;;;;9.22;93.21;101192.34;5561557;32;34007;-56
2022/11/08 09:10:56;;;;;;;47.67;29.20;;;;;;;9.16;95.17;101196.00;5561383;32;33550;-56
2022/11/08 09:13:58;;;;;;;49.33;28.92;;;;;;;9.41;94.02;101198.97;5559284;32;34325;-56
2022/11/08 09:17:01;;;;;;;47.22;28.67;;;;;;;9.56;90.66;101198.31;5563432;32;33641;-57
2022/11/08 09:20:04;;;;;;;51.85;29.67;;;;;;;9.63;90.02;101193.56;5565119;32;33780;-57
2022/11/08 09:23:09;;;;;;;47.42;28.40;;;;;;;9.40;92.37;101201.88;5558547;32;35076;-56
2022/11/08 09:26:11;;;;;;;47.05;29.37;;;;;;;9.28;93.40;101215.41;5558279;32;33411;-56
2022/11/08 09:29:13;;;;;;;53.65;29.35;;;;;;;9.25;94.26;101212.44;5558885;32;33641;-56
2022/11/08 09:32:16;;;;;;;58.63;30.65;;;;;;;9.48;92.16;101208.66;5556450;32;33928;-57
2022/11/08 09:35:34;;;;;;;49.20;30.20;;;;;;;9.48;92.90;101212.16;5566704;32;33701;-55
2022/11/08 09:38:36;;;;;;;44.30;28.62;;;;;;;9.58;91.29;101208.78;5564376;32;34337;-57
2022/11/08 09:41:41;;;;;;;47.03;30.15;;;;;;;9.62;92.82;101204.53;5566797;32;33396;-56
2022/11/08 09:44:58;;;;;;;48.25;30.27;;;;;;;9.76;91.35;101208.38;5565839;32;33722;-56
2022/11/08 09:48:06;;;;;;;45.80;29.52;;;;;;;9.92;89.00;101208.53;5562012;32;33568;-57
2022/11/08 09:51:12;;;;;;;49.65;30.42;;;;;;;9.88;89.02;101208.25;5560324;32;33693;-56
2022/11/08 09:54:30;;;;;;;53.47;31.33;;;;;;;9.94;89.66;101203.75;5561757;32;33620;-57
2022/11/08 09:58:01;;;;;;;49.75;31.10;;;;;;;9.96;89.37;101205.09;5566939;32;33706;-56
2022/11/08 10:01:12;;;;;;;49.30;30.27;;;;;;;9.86;90.32;101203.13;5566284;32;34311;-56
2022/11/08 10:04:21;;;;;;;49.03;29.45;;;;;;;9.91;90.81;101202.38;5567122;32;33716;-57
2022/11/08 10:07:33;;;;;;;48.63;29.58;;;;;;;9.89;89.06;101201.81;5568203;32;33114;-56
2022/11/08 10:10:57;;;;;;;48.25;30.48;;;;;;;9.88;88.90;101201.00;5562412;32;34030;-56
2022/11/08 10:14:17;;;;;;;55.10;31.42;;;;;;;9.87;88.57;101203.97;5564446;32;33578;-56
2022/11/08 10:17:25;;;;;;;48.47;30.62;;;;;;;9.93;89.26;101208.25;5552888;32;34928;-57
2022/11/08 10:20:55;;;;;;;54.55;30.37;;;;;;;10.02;89.61;101179.94;5562746;32;33792;-56
2022/11/08 10:24:08;;;;;;;53.08;31.52;;;;;;;10.06;89.16;101182.94;5567109;32;32954;-56
2022/11/08 10:27:18;;;;;;;56.40;34.05;;;;;;;10.23;88.22;101180.94;5566148;32;33276;-57
2022/11/08 10:30:25;;;;;;;59.65;35.05;;;;;;;10.08;92.26;101180.81;5564847;32;32348;-56
2022/11/08 10:33:36;;;;;;;54.40;32.95;;;;;;;10.14;92.53;101179.78;5557785;32;34348;-57
2022/11/08 10:36:47;;;;;;;61.20;34.05;;;;;;;10.13;91.13;101178.16;5563439;32;33774;-56
2022/11/08 10:40:04;;;;;;;52.38;32.95;;;;;;;10.11;92.29;101181.09;5563789;32;33164;-56
2022/11/08 10:43:17;;;;;;;50.35;31.65;;;;;;;10.15;92.66;101178.72;5561196;32;33522;-56
2022/11/08 10:46:45;;;;;;;47.83;31.90;;;;;;;10.40;89.83;101169.25;5564669;32;35382;-56
2022/11/08 10:49:48;;;;;;;46.37;31.35;;;;;;;10.51;88.48;101166.38;5566117;32;33092;-56
2022/11/08 10:52:59;;;;;;;46.00;30.60;;;;;;;10.58;87.45;101166.13;5563557;32;34288;-56
2022/11/08 10:56:04;;;;;;;48.35;30.00;;;;;;;10.52;88.56;101159.94;5564335;32;34303;-57
2022/11/08 10:59:30;;;;;;;48.92;31.45;;;;;;;10.38;89.97;101152.63;5563738;32;33661;-57
2022/11/08 11:02:34;;;;;;;46.63;30.77;;;;;;;10.18;91.67;101153.28;5564513;32;33771;-56
2022/11/08 11:05:41;;;;;;;43.60;30.65;;;;;;;10.38;90.51;101148.06;5566525;32;33171;-56
2022/11/08 11:09:15;;;;;;;47.22;31.98;;;;;;;10.46;89.28;101154.81;5567599;32;33710;-57
2022/11/08 11:12:17;;;;;;;48.63;30.80;;;;;;;10.38;89.83;101147.25;5569010;32;33862;-57
2022/11/08 11:15:20;;;;;;;59.53;32.40;;;;;;;10.44;90.04;101148.91;5565956;32;33653;-56
2022/11/08 11:18:34;;;;;;;50.33;30.17;;;;;;;10.28;92.28;101148.00;5566773;32;33760;-56
2022/11/08 11:21:39;;;;;;;45.55;32.05;;;;;;;10.37;92.03;101153.69;5563709;32;34315;-56
2022/11/08 11:24:49;;;;;;;48.85;31.60;;;;;;;10.38;91.80;101149.94;5564431;32;33775;-56
2022/11/08 11:27:57;;;;;;;47.00;31.15;;;;;;;10.40;91.99;101145.13;5566291;32;33422;-56
2022/11/08 11:31:02;;;;;;;50.40;30.23;;;;;;;10.47;92.11;101145.72;5564185;32;33474;-56
2022/11/08 11:34:17;;;;;;;47.00;31.62;;;;;;;10.46;91.96;101139.56;5561653;32;34406;-56
2022/11/08 11:37:41;;;;;;;43.95;30.30;;;;;;;10.45;91.87;101137.12;5564087;31;32397;-57
2022/11/08 11:40:45;;;;;;;40.08;29.23;;;;;;;10.55;91.93;101139.84;5568657;32;34328;-57
2022/11/08 11:44:05;;;;;;;43.75;29.98;;;;;;;10.52;90.98;101135.00;5549500;32;33735;-57
2022/11/08 11:47:18;;;;;;;36.22;28.08;;;;;;;10.56;90.47;101133.41;5564885;32;33978;-56
2022/11/08 11:50:27;;;;;;;45.58;29.10;;;;;;;10.63;90.75;101128.63;5569159;32;33769;-57
2022/11/08 11:53:37;;;;;;;46.63;30.42;;;;;;;10.71;89.90;101128.13;5567885;32;33166;-57
2022/11/08 11:56:59;;;;;;;43.80;29.92;;;;;;;10.75;90.98;101123.84;5568478;32;33789;-56
2022/11/08 12:00:08;;;;;;;44.03;30.88;;;;;;;10.69;90.38;101118.72;5568657;32;33766;-57
2022/11/08 12:03:35;;;;;;;43.17;29.33;;;;;;;10.86;91.55;101119.31;5569035;32;34558;-56
2022/11/08 12:06:40;;;;;;;43.20;29.45;;;;;;;10.95;91.09;101114.25;5568777;32;33913;-56
2022/11/08 12:10:20;;;;;;;39.75;27.52;;;;;;;11.04;91.77;101104.59;5552033;32;33646;-56
2022/11/08 12:13:44;;;;;;;37.70;28.12;;;;;;;11.24;89.48;101093.91;5549374;32;33864;-56
2022/11/08 12:17:13;;;;;;;40.30;29.17;;;;;;;11.43;87.62;101090.72;5549284;32;33763;-57
2022/11/08 12:20:44;;;;;;;42.67;29.30;;;;;;;11.23;89.88;101083.44;5548501;32;34249;-57
2022/11/08 12:24:07;;;;;;;41.00;28.83;;;;;;;11.32;89.49;101078.34;5549122;32;34577;-56
2022/11/08 12:27:37;;;;;;;40.65;28.42;;;;;;;11.31;91.10;101077.53;5549482;32;33678;-57
2022/11/08 12:30:54;;;;;;;43.65;28.50;;;;;;;11.46;88.52;101069.50;5564666;32;33475;-56
2022/11/08 12:34:12;;;;;;;41.72;28.90;;;;;;;11.41;90.01;101064.13;5568170;32;34434;-56
2022/11/08 12:37:24;;;;;;;38.35;27.60;;;;;;;11.45;90.75;101064.37;5567984;32;34170;-57
2022/11/08 12:40:56;;;;;;;44.75;27.42;;;;;;;11.70;88.83;101061.69;5568507;32;33747;-56
2022/11/08 12:44:23;;;;;;;40.10;27.67;;;;;;;11.80;88.52;101060.06;5563578;32;33671;-56
2022/11/08 12:47:37;;;;;;;41.83;28.58;;;;;;;11.95;87.96;101055.50;5568632;32;33723;-56
2022/11/08 12:50:56;;;;;;;42.25;28.05;;;;;;;12.06;87.61;101055.47;5568329;32;33897;-56
2022/11/08 12:54:21;;;;;;;53.38;30.40;;;;;;;11.93;88.69;101057.63;5568477;32;33633;-56
2022/11/08 12:57:27;;;;;;;44.42;28.87;;;;;;;11.83;89.74;101049.56;5568596;32;33745;-58
2022/11/08 13:00:30;;;;;;;59.55;38.78;;;;;;;11.82;90.35;101056.03;5568654;32;33798;-57
2022/11/08 13:03:41;;;;;;;46.47;30.95;;;;;;;11.90;90.44;101046.63;5568227;32;34396;-56
2022/11/08 13:06:46;;;;;;;42.25;28.80;;;;;;;12.01;89.96;101042.84;5568069;32;33663;-56
2022/11/08 13:10:13;;;;;;;46.50;28.67;;;;;;;12.13;89.62;101046.03;5568043;32;34336;-56
2022/11/08 13:13:15;;;;;;;42.20;28.40;;;;;;;12.15;89.50;101043.87;5567016;32;33535;-56
2022/11/08 13:16:20;;;;;;;41.15;29.35;;;;;;;12.17;89.43;101043.59;5568161;32;33645;-57
2022/11/08 13:19:28;;;;;;;46.30;29.48;;;;;;;12.31;89.35;101041.91;5567932;32;33212;-57
2022/11/08 13:22:31;;;;;;;41.88;26.83;;;;;;;12.41;89.27;101030.31;5568268;32;34357;-57
2022/11/08 13:25:34;;;;;;;43.22;26.37;;;;;;;12.39;89.94;101027.13;5568111;32;33575;-56
2022/11/08 13:28:46;;;;;;;40.85;27.77;;;;;;;12.41;90.20;101030.31;5564988;32;34458;-56
2022/11/08 13:32:20;;;;;;;43.17;28.92;;;;;;;12.50;89.95;101028.66;5557304;32;33577;-56
2022/11/08 13:35:31;;;;;;;45.20;28.70;;;;;;;12.51;90.11;101024.09;5552899;32;34367;-57
2022/11/08 13:39:11;;;;;;;39.75;27.17;;;;;;;12.55;90.32;101031.34;5550591;32;33628;-57
2022/11/08 13:42:16;;;;;;;44.30;27.73;;;;;;;12.57;90.59;101017.59;5550734;32;33696;-56
2022/11/08 13:45:31;;;;;;;38.30;26.60;;;;;;;12.61;90.57;101021.34;5550955;32;33536;-57
2022/11/08 13:48:36;;;;;;;42.13;26.15;;;;;;;12.66;90.76;101026.69;5550655;32;33789;-57
2022/11/08 13:51:40;;;;;;;40.95;27.13;;;;;;;12.75;90.39;101024.22;5550827;32;34352;-56
2022/11/08 13:54:49;;;;;;;44.00;26.25;;;;;;;12.78;91.31;101027.19;5550631;32;34328;-57
2022/11/08 13:57:58;;;;;;;38.72;25.48;;;;;;;12.84;90.83;101025.22;5550417;32;33660;-56
2022/11/08 14:01:04;;;;;;;40.22;26.25;;;;;;;13.02;90.60;101034.53;5550394;32;33975;-57
2022/11/08 14:04:24;;;;;;;36.45;23.92;;;;;;;13.17;89.58;101026.34;5551128;32;33622;-56
2022/11/08 14:08:05;;;;;;;39.65;25.35;;;;;;;13.27;88.35;101034.38;5550843;32;33714;-56
2022/11/08 14:11:11;;;;;;;40.35;26.35;;;;;;;13.26;88.03;101040.84;5524282;32;34196;-57
2022/11/08 14:14:47;;;;;;;34.95;26.17;;;;;;;13.16;87.57;101033.63;5550456;32;34459;-57
2022/11/08 14:18:03;;;;;;;36.28;24.63;;;;;;;13.09;87.32;101043.09;5550431;32;34422;-57
2022/11/08 14:21:06;;;;;;;39.97;26.37;;;;;;;13.04;88.53;101043.94;5550543;32;33710;-57
2022/11/08 14:24:16;;;;;;;34.70;24.77;;;;;;;12.97;87.72;101035.38;5550266;32;34406;-57
2022/11/08 14:27:37;;;;;;;38.70;26.70;;;;;;;12.91;87.20;101031.09;5549987;32;34507;-56
2022/11/08 14:30:46;;;;;;;38.80;26.50;;;;;;;12.74;87.79;101031.47;5550085;32;33377;-57
2022/11/08 14:33:53;;;;;;;33.33;25.15;;;;;;;12.74;87.12;101028.78;5550085;32;33737;-57
2022/11/08 14:36:56;;;;;;;35.20;26.73;;;;;;;12.61;87.00;101034.78;5550598;32;33927;-57
2022/11/08 14:39:58;;;;;;;34.75;25.30;;;;;;;12.43;87.78;101036.22;5550314;32;34563;-57
2022/11/08 14:43:01;;;;;;;39.30;25.95;;;;;;;12.44;88.43;101035.16;5549524;32;34390;-56
2022/11/08 14:46:11;;;;;;;38.80;26.52;;;;;;;12.34;88.87;101030.63;5549743;32;34363;-57
2022/11/08 14:49:14;;;;;;;38.78;26.73;;;;;;;12.33;88.77;101033.59;5550168;32;34357;-56
2022/11/08 14:52:21;;;;;;;38.15;26.00;;;;;;;12.36;88.16;101036.53;5550101;32;33812;-57
2022/11/08 14:55:24;;;;;;;36.42;26.50;;;;;;;12.26;88.10;101030.41;5549857;32;34351;-54
2022/11/08 14:58:28;;;;;;;40.25;28.65;;;;;;;12.21;88.14;101028.53;5550045;32;33734;-54
2022/11/08 15:01:31;;;;;;;39.70;27.77;;;;;;;12.19;88.00;101038.75;5550121;32;34372;-54
2022/11/08 15:04:39;;;;;;;41.05;27.98;;;;;;;12.14;88.10;101044.16;5550340;32;33689;-54
2022/11/08 15:07:45;;;;;;;44.60;29.15;;;;;;;11.99;88.53;101039.63;5550055;32;34345;-54
2022/11/08 15:11:01;;;;;;;49.95;31.10;;;;;;;11.90;89.07;101034.00;5549920;32;33730;-54
2022/11/08 15:14:07;;;;;;;47.38;31.90;;;;;;;11.86;89.37;101048.25;5549756;32;34328;-55
2022/11/08 15:17:32;;;;;;;47.42;31.85;;;;;;;11.84;89.33;101042.31;5550111;32;34081;-55
2022/11/08 15:20:34;;;;;;;51.88;33.15;;;;;;;11.71;89.67;101044.47;5550123;32;34336;-55
2022/11/08 15:23:48;;;;;;;52.20;32.05;;;;;;;11.50;91.95;101050.97;5550107;32;33364;-55
2022/11/08 15:27:18;;;;;;;52.80;33.90;;;;;;;11.56;91.62;101043.72;5549886;32;34457;-55
2022/11/08 15:30:29;;;;;;;62.10;35.78;;;;;;;11.50;92.82;101049.06;5549601;32;34314;-55
2022/11/08 15:33:34;;;;;;;54.50;34.92;;;;;;;11.47;93.03;101046.94;5549237;32;33776;-55
2022/11/08 15:36:36;;;;;;;55.23;34.17;;;;;;;11.57;91.67;101043.44;5550044;32;33692;-55
2022/11/08 15:39:39;;;;;;;62.03;37.03;;;;;;;11.66;91.05;101054.44;5548765;32;33730;-55
2022/11/08 15:42:47;;;;;;;60.03;36.10;;;;;;;11.52;91.85;101052.31;5549942;32;33777;-55
2022/11/08 15:45:53;;;;;;;60.83;37.55;;;;;;;11.45;92.09;101057.13;5550006;32;33610;-55
2022/11/08 15:48:56;;;;;;;65.87;39.35;;;;;;;11.31;93.08;101055.25;5549820;32;33755;-55
2022/11/08 15:51:59;;;;;;;60.45;39.00;;;;;;;11.36;92.82;101055.28;5549606;32;33737;-55
2022/11/08 15:55:01;;;;;;;65.47;38.28;;;;;;;11.31;92.99;101057.94;5548162;32;34665;-55
2022/11/08 15:58:15;;;;;;;67.97;40.47;;;;;;;11.20;94.18;101057.94;5549189;32;33659;-56
2022/11/08 16:01:19;;;;;;;67.07;40.45;;;;;;;11.27;93.69;101058.47;5549623;32;33686;-55
2022/11/08 16:04:22;;;;;;;69.45;41.28;;;;;;;11.25;93.65;101063.28;5552239;32;33621;-55
2022/11/08 16:07:24;;;;;;;67.80;39.72;;;;;;;11.31;93.50;101058.75;5565988;32;34499;-55
2022/11/08 16:10:35;;;;;;;59.63;37.85;;;;;;;11.37;94.16;101059.56;5567739;32;33659;-55
2022/11/08 16:13:38;;;;;;;70.18;38.25;;;;;;;11.41;93.99;101056.06;5569068;32;33808;-55
2022/11/08 16:16:40;;;;;;;63.72;36.90;;;;;;;11.34;93.33;101063.56;5569291;32;34419;-55
2022/11/08 16:19:42;;;;;;;66.37;39.92;;;;;;;11.33;93.69;101053.13;5569143;32;34358;-55
2022/11/08 16:22:44;;;;;;;63.45;38.17;;;;;;;11.43;92.00;101058.50;5569083;32;33261;-55
2022/11/08 16:25:50;;;;;;;57.83;34.78;;;;;;;11.39;92.42;101057.41;5568961;32;33652;-55
2022/11/08 16:28:52;;;;;;;56.78;34.33;;;;;;;11.36;92.78;101055.28;5568867;32;33756;-55
2022/11/08 16:31:54;;;;;;;54.28;33.40;;;;;;;11.34;92.38;101068.16;5568974;32;34113;-55
2022/11/08 16:34:57;;;;;;;56.85;34.70;;;;;;;11.27;92.89;101069.22;5568871;32;33645;-55
2022/11/08 16:37:59;;;;;;;62.53;30.75;;;;;;;11.21;93.40;101064.09;5569155;32;33740;-55
2022/11/08 16:41:02;;;;;;;58.78;33.45;;;;;;;11.34;96.43;101063.56;5568858;32;33802;-55
2022/11/08 16:44:04;;;;;;;55.10;33.65;;;;;;;11.60;96.39;101069.75;5568730;32;33930;-55
2022/11/08 16:47:16;;;;;;;56.45;34.88;;;;;;;11.83;94.50;101071.06;5568738;32;34432;-55
